Time;durP1;ratioP1;P1;durP2;ratioP2;P2;SDS_P1;SDS_P2;PMS_P1;PMS_P2;Temp;Humidity;BMP_temperature;BMP_pressure;BME280_temperature;BME280_humidity;BME280_pressure;Samples;Min_cycle;Max_cycle;Signal;HPM_P1;HPM_P2
2021/03/13 00:02:46;;;;;;;1.51;0.50;;;;;;;5.74;84.20;98560.97;2034925;76;20468;-73
2021/03/13 00:05:48;;;;;;;0.71;0.30;;;;;;;5.73;83.95;98561.81;2035656;79;20329;-74
2021/03/13 00:08:50;;;;;;;1.66;0.25;;;;;;;5.73;83.59;98560.09;2035315;79;20785;-73
2021/03/13 00:11:51;;;;;;;0.46;0.20;;;;;;;5.71;83.88;98550.66;2035027;79;20308;-74
2021/03/13 00:14:53;;;;;;;1.54;0.30;;;;;;;5.69;84.09;98545.50;2035831;79;20317;-74
2021/03/13 00:17:56;;;;;;;0.30;0.20;;;;;;;5.72;84.32;98542.94;2034705;76;21559;-74
2021/03/13 00:20:58;;;;;;;0.46;0.29;;;;;;;5.74;84.60;98538.69;2036428;79;20389;-74
2021/03/13 00:24:00;;;;;;;1.55;0.32;;;;;;;5.74;84.97;98528.38;2035260;79;20463;-74
2021/03/13 00:27:02;;;;;;;1.60;0.50;;;;;;;5.76;85.27;98528.38;2035069;79;20429;-74
2021/03/13 00:30:06;;;;;;;3.46;0.39;;;;;;;5.78;85.45;98533.53;2034993;79;21135;-74
2021/03/13 00:33:15;;;;;;;0.68;0.30;;;;;;;5.76;85.66;98525.78;2082848;68;20351;-75
2021/03/13 00:36:16;;;;;;;2.75;0.40;;;;;;;5.73;85.90;98524.06;2025154;79;20314;-74
2021/03/13 00:39:18;;;;;;;3.47;0.40;;;;;;;5.74;86.20;98525.81;2025651;79;20192;-73
2021/03/13 00:42:20;;;;;;;2.81;0.30;;;;;;;5.75;86.32;98531.81;2024880;79;20299;-73
2021/03/13 00:45:24;;;;;;;0.96;0.30;;;;;;;5.77;86.40;98542.97;2023847;77;23130;-73
2021/03/13 00:48:29;;;;;;;1.04;0.34;;;;;;;5.79;86.37;98532.66;2024847;79;20384;-72
2021/03/13 00:51:30;;;;;;;3.21;0.30;;;;;;;5.79;86.49;98512.91;2024843;79;20342;-72
2021/03/13 00:54:32;;;;;;;1.20;0.40;;;;;;;5.81;86.48;98512.91;2024449;79;20400;-71
2021/03/13 00:57:34;;;;;;;0.54;0.24;;;;;;;5.82;86.28;98497.44;2025232;79;20939;-71
2021/03/13 01:00:36;;;;;;;1.48;0.20;;;;;;;5.80;86.12;98494.03;2022947;78;21441;-70
2021/03/13 01:03:38;;;;;;;1.52;0.20;;;;;;;5.81;86.06;98488.00;2019562;80;20341;-70
2021/03/13 01:06:40;;;;;;;0.30;0.20;;;;;;;5.79;85.87;98491.44;2019765;80;20376;-71
2021/03/13 01:09:41;;;;;;;1.01;0.20;;;;;;;5.79;85.76;98497.47;2019573;80;20359;-70
2021/03/13 01:12:43;;;;;;;0.93;0.20;;;;;;;5.80;85.65;98495.75;2019446;80;20307;-71
2021/03/13 01:15:45;;;;;;;0.46;0.17;;;;;;;5.76;85.48;98492.31;2019905;77;24300;-71
2021/03/13 01:18:47;;;;;;;0.84;0.30;;;;;;;5.76;85.46;98488.03;2024789;79;20977;-71
2021/03/13 01:21:48;;;;;;;1.86;0.38;;;;;;;5.75;85.48;98485.44;2025118;79;20314;-72
2021/03/13 01:24:50;;;;;;;0.31;0.20;;;;;;;5.73;85.56;98469.97;2025171;79;20430;-71
2021/03/13 01:27:52;;;;;;;0.55;0.20;;;;;;;5.73;85.58;98453.66;2024731;79;20358;-72
2021/03/13 01:30:53;;;;;;;0.77;0.30;;;;;;;5.73;85.46;98444.22;2022221;77;21146;-72
2021/03/13 01:33:55;;;;;;;0.39;0.20;;;;;;;5.71;85.59;98443.34;2019116;80;20407;-72
2021/03/13 01:36:58;;;;;;;1.06;0.10;;;;;;;5.70;85.65;98430.47;2019923;80;20315;-72
2021/03/13 01:40:00;;;;;;;0.80;0.20;;;;;;;5.67;85.70;98433.91;2019125;80;20332;-71
2021/03/13 01:43:01;;;;;;;1.39;0.26;;;;;;;5.69;85.76;98410.75;2019622;80;20376;-71
2021/03/13 01:46:03;;;;;;;0.45;0.20;;;;;;;5.66;85.88;98411.59;2018570;77;20388;-72
2021/03/13 01:49:06;;;;;;;0.74;0.64;;;;;;;5.61;86.14;98408.19;2019846;80;20403;-72
2021/03/13 01:52:08;;;;;;;1.14;0.29;;;;;;;5.59;86.49;98404.75;2019609;80;20315;-72
2021/03/13 01:55:11;;;;;;;2.21;0.40;;;;;;;5.59;86.86;98398.75;2019073;80;20328;-72
2021/03/13 01:58:13;;;;;;;3.00;0.74;;;;;;;5.58;87.06;98403.03;2019415;80;20325;-72
2021/03/13 02:01:23;;;;;;;1.81;0.30;;;;;;;5.63;87.36;98406.47;2021492;77;20344;-73
2021/03/13 02:04:25;;;;;;;3.06;0.45;;;;;;;5.69;87.49;98405.59;2024591;79;20311;-74
2021/03/13 02:07:45;;;;;;;0.73;0.30;;;;;;;5.72;87.55;98403.88;2024990;79;20365;-73
2021/03/13 02:11:00;;;;;;;3.20;0.40;;;;;;;5.78;87.47;98390.13;2024840;79;20314;-74
2021/03/13 02:14:16;;;;;;;4.05;0.55;;;;;;;5.83;87.30;98383.25;2024455;80;20347;-73
2021/03/13 02:17:26;;;;;;;1.16;0.49;;;;;;;5.87;87.23;98366.94;2019373;77;20423;-74
2021/03/13 02:20:57;;;;;;;3.95;0.57;;;;;;;5.90;87.26;98358.34;2019228;80;20892;-74
2021/03/13 02:24:01;;;;;;;2.36;0.47;;;;;;;5.94;87.12;98360.94;2019027;80;20323;-73
2021/03/13 02:27:13;;;;;;;1.42;0.40;;;;;;;5.97;86.96;98344.63;2019777;80;20346;-74
2021/03/13 02:30:20;;;;;;;1.06;0.38;;;;;;;5.97;87.01;98342.91;2018358;77;20304;-74
2021/03/13 02:33:39;;;;;;;1.51;0.30;;;;;;;5.99;86.84;98342.91;2019752;80;20320;-74
2021/03/13 02:36:42;;;;;;;1.66;0.30;;;;;;;6.00;86.82;98335.16;2019703;80;20312;-74
2021/03/13 02:39:45;;;;;;;5.56;1.45;;;;;;;6.01;86.79;98333.44;2020727;80;20352;-73
2021/03/13 02:42:53;;;;;;;5.22;1.42;;;;;;;6.03;86.70;98339.44;2019922;80;20435;-74
2021/03/13 02:45:59;;;;;;;4.74;1.54;;;;;;;6.04;86.75;98330.84;2020604;77;21447;-74
2021/03/13 02:49:02;;;;;;;5.49;0.69;;;;;;;6.07;86.60;98330.81;2025017;79;20356;-75
2021/03/13 02:52:06;;;;;;;2.44;0.50;;;;;;;6.08;86.62;98327.38;2025371;79;20371;-75
2021/03/13 02:55:11;;;;;;;3.31;0.60;;;;;;;6.10;86.71;98328.22;2024776;79;20332;-75
2021/03/13 02:58:15;;;;;;;4.20;1.06;;;;;;;6.13;86.75;98319.66;2025156;79;20302;-73
2021/03/13 03:01:20;;;;;;;2.45;0.46;;;;;;;6.15;86.86;98312.78;2022439;78;21053;-73
2021/03/13 03:04:23;;;;;;;2.16;0.54;;;;;;;6.15;86.96;98312.78;2021444;80;20483;-74
2021/03/13 03:07:26;;;;;;;1.75;0.40;;;;;;;6.17;87.11;98311.03;2021062;80;20910;-75
2021/03/13 03:10:32;;;;;;;2.36;0.64;;;;;;;6.17;87.26;98303.31;2021951;80;20434;-75
2021/03/13 03:13:34;;;;;;;4.61;0.76;;;;;;;6.19;87.33;98296.44;2021340;80;20343;-74
2021/03/13 03:16:39;;;;;;;4.90;0.60;;;;;;;6.21;87.40;98292.13;2020498;77;20457;-75
2021/03/13 03:19:42;;;;;;;3.39;1.24;;;;;;;6.23;87.43;98282.66;2021683;80;20353;-74
2021/03/13 03:22:44;;;;;;;5.53;0.50;;;;;;;6.23;87.57;98280.94;2021350;80;20332;-74
2021/03/13 03:25:45;;;;;;;3.06;0.71;;;;;;;6.26;87.54;98280.06;2020358;80;20300;-74
2021/03/13 03:28:47;;;;;;;6.43;0.75;;;;;;;6.25;87.72;98292.09;2018547;80;20913;-74
2021/03/13 03:31:49;;;;;;;4.05;0.85;;;;;;;6.29;87.63;98277.50;2018632;77;22730;-75
2021/03/13 03:34:51;;;;;;;4.99;0.70;;;;;;;6.30;87.61;98276.63;2019494;80;20375;-74
2021/03/13 03:37:56;;;;;;;4.81;1.05;;;;;;;6.31;87.69;98271.47;2019124;80;20356;-74
2021/03/13 03:40:57;;;;;;;4.44;0.96;;;;;;;6.34;87.54;98268.84;2018558;80;20358;-75
2021/03/13 03:44:05;;;;;;;4.47;0.61;;;;;;;6.37;87.15;98265.41;2019035;80;20720;-74
2021/03/13 03:47:09;;;;;;;4.46;0.70;;;;;;;6.38;86.86;98259.38;2022082;77;20405;-75
2021/03/13 03:50:14;;;;;;;4.04;0.64;;;;;;;6.42;86.73;98260.22;2024658;79;20785;-74
2021/03/13 03:53:22;;;;;;;7.05;1.35;;;;;;;6.42;86.60;98257.63;2024005;79;20822;-73
2021/03/13 03:56:25;;;;;;;6.89;0.80;;;;;;;6.43;86.36;98255.03;2023731;79;20334;-73
2021/03/13 03:59:27;;;;;;;6.40;0.86;;;;;;;6.46;86.21;98256.75;2024132;79;20928;-75
2021/03/13 04:02:31;;;;;;;5.94;0.96;;;;;;;6.50;85.55;98241.25;2019002;79;20344;-75
2021/03/13 04:05:33;;;;;;;3.42;0.64;;;;;;;6.50;85.53;98243.84;2017433;80;20339;-75
2021/03/13 04:08:38;;;;;;;6.04;0.90;;;;;;;6.53;85.30;98227.50;2018211;80;20543;-76
2021/03/13 04:11:41;;;;;;;4.39;0.70;;;;;;;6.53;85.13;98235.22;2017392;80;20326;-76
2021/03/13 04:14:43;;;;;;;4.04;0.70;;;;;;;6.53;85.16;98223.19;2016932;80;20695;-74
2021/03/13 04:17:46;;;;;;;5.30;0.74;;;;;;;6.54;85.12;98226.63;2017413;80;20320;-75
2021/03/13 04:20:50;;;;;;;3.30;1.21;;;;;;;6.54;85.04;98221.47;2017792;80;20543;-75
2021/03/13 04:23:52;;;;;;;4.36;0.80;;;;;;;6.54;84.89;98213.72;2017405;80;20371;-75
2021/03/13 04:26:54;;;;;;;4.19;0.60;;;;;;;6.51;84.91;98222.34;2016820;80;21275;-75
2021/03/13 04:29:56;;;;;;;2.89;0.73;;;;;;;6.54;84.98;98206.00;2017415;80;20417;-76
2021/03/13 04:32:59;;;;;;;5.64;0.90;;;;;;;6.53;85.11;98193.97;2017998;80;20335;-77
2021/03/13 04:36:03;;;;;;;5.19;0.94;;;;;;;6.53;85.13;98194.81;2017045;80;20345;-75
2021/03/13 04:39:06;;;;;;;6.76;0.79;;;;;;;6.51;85.18;98195.72;2018148;80;21196;-75
2021/03/13 04:42:08;;;;;;;2.61;0.60;;;;;;;6.48;85.40;98190.56;2017268;80;21365;-75
2021/03/13 04:45:12;;;;;;;2.35;0.51;;;;;;;6.48;85.59;98194.00;2017479;80;20316;-74
2021/03/13 04:48:14;;;;;;;5.28;1.49;;;;;;;6.46;85.69;98176.81;2017948;80;21724;-72
2021/03/13 04:51:18;;;;;;;4.45;1.08;;;;;;;6.44;85.79;98188.84;2017435;80;20292;-73
2021/03/13 04:54:19;;;;;;;4.13;1.10;;;;;;;6.44;85.90;98192.28;2017704;80;20323;-73
2021/03/13 04:57:21;;;;;;;2.95;0.66;;;;;;;6.42;86.18;98193.19;2017123;80;20833;-72
2021/03/13 05:00:23;;;;;;;2.76;0.79;;;;;;;6.40;86.44;98175.16;2017321;80;20335;-72
2021/03/13 05:03:26;;;;;;;5.19;1.86;;;;;;;6.41;86.63;98192.31;2017758;80;20363;-71
2021/03/13 05:06:27;;;;;;;2.39;0.80;;;;;;;6.39;86.62;98173.44;2017880;80;20316;-71
2021/03/13 05:09:29;;;;;;;2.92;0.63;;;;;;;6.36;86.82;98166.59;2021107;80;21312;-71
2021/03/13 05:12:31;;;;;;;3.46;0.70;;;;;;;6.38;86.92;98169.16;2017330;80;20925;-72
2021/03/13 05:15:32;;;;;;;2.90;0.65;;;;;;;6.36;87.04;98168.31;2017546;80;20332;-71
2021/03/13 05:18:34;;;;;;;3.90;0.75;;;;;;;6.34;87.25;98164.88;2017492;80;20390;-71
2021/03/13 05:21:36;;;;;;;3.46;0.77;;;;;;;6.33;87.32;98164.03;2017537;80;20320;-72
2021/03/13 05:24:37;;;;;;;2.67;0.54;;;;;;;6.33;87.39;98148.56;2017853;80;20324;-72
2021/03/13 05:27:39;;;;;;;3.17;0.80;;;;;;;6.34;87.53;98141.69;2017301;80;20362;-71
2021/03/13 05:30:41;;;;;;;3.70;0.70;;;;;;;6.33;87.56;98152.88;2017818;80;20698;-72
2021/03/13 05:33:42;;;;;;;5.54;0.59;;;;;;;6.31;87.67;98141.72;2017278;80;20525;-74
2021/03/13 05:36:44;;;;;;;3.86;1.10;;;;;;;6.28;87.80;98124.56;2017095;80;20324;-74
2021/03/13 05:39:46;;;;;;;2.21;0.60;;;;;;;6.30;87.90;98111.66;2016964;80;20345;-74
2021/03/13 05:42:48;;;;;;;2.94;0.50;;;;;;;6.29;87.88;98104.78;2016988;80;20328;-73
2021/03/13 05:45:50;;;;;;;1.74;0.40;;;;;;;6.28;87.77;98096.19;2017273;80;20311;-74
2021/03/13 05:48:52;;;;;;;1.80;0.65;;;;;;;6.28;87.67;98085.88;2017092;80;20350;-73
2021/03/13 05:51:55;;;;;;;1.90;0.50;;;;;;;6.28;87.81;98083.31;2017763;80;20800;-73
2021/03/13 05:54:57;;;;;;;2.84;0.50;;;;;;;6.27;87.76;98068.69;2017308;80;20860;-73
2021/03/13 05:58:01;;;;;;;1.48;0.47;;;;;;;6.29;87.47;98058.41;2017494;80;20327;-73
2021/03/13 06:01:03;;;;;;;1.80;0.41;;;;;;;6.31;87.31;98060.09;2017287;80;20434;-73
2021/03/13 06:04:05;;;;;;;5.21;1.73;;;;;;;6.31;87.20;98056.66;2017235;80;20319;-73
2021/03/13 06:07:13;;;;;;;1.92;0.51;;;;;;;6.33;87.21;98047.19;2017277;80;20575;-73
2021/03/13 06:10:15;;;;;;;3.00;0.44;;;;;;;6.32;86.93;98040.31;2018140;80;20347;-73
2021/03/13 06:13:17;;;;;;;2.60;0.44;;;;;;;6.34;86.87;98042.00;2017940;80;20210;-73
2021/03/13 06:16:19;;;;;;;3.70;0.86;;;;;;;6.35;86.71;98038.56;2017232;80;20653;-74
2021/03/13 06:19:21;;;;;;;3.34;0.51;;;;;;;6.37;86.42;98023.06;2018602;80;21170;-74
2021/03/13 06:22:39;;;;;;;2.44;0.86;;;;;;;6.35;86.24;98023.09;2017784;80;20855;-73
2021/03/13 06:25:42;;;;;;;1.74;0.56;;;;;;;6.38;86.13;98014.47;2017887;80;20813;-73
2021/03/13 06:28:44;;;;;;;2.08;0.40;;;;;;;6.37;86.21;97999.88;2018554;80;20916;-73
2021/03/13 06:32:06;;;;;;;2.84;0.41;;;;;;;6.38;86.15;97985.25;2017916;80;21413;-72
2021/03/13 06:35:28;;;;;;;2.38;0.50;;;;;;;6.40;85.80;97991.25;2017196;80;20319;-74
2021/03/13 06:38:37;;;;;;;3.31;0.69;;;;;;;6.40;85.18;97975.78;2017822;80;20324;-74
2021/03/13 06:41:38;;;;;;;2.47;0.50;;;;;;;6.41;84.79;97968.03;2017562;80;20446;-74
2021/03/13 06:44:52;;;;;;;2.80;0.50;;;;;;;6.42;84.66;97971.47;2017915;80;20804;-75
2021/03/13 06:47:54;;;;;;;3.03;0.70;;;;;;;6.44;84.29;97961.97;2018313;80;21165;-74
2021/03/13 06:51:13;;;;;;;2.63;0.52;;;;;;;6.45;83.75;97956.81;2018032;80;20816;-76
2021/03/13 06:54:16;;;;;;;4.17;0.80;;;;;;;6.47;83.89;97949.94;2017736;80;20379;-77
2021/03/13 06:57:19;;;;;;;3.44;0.65;;;;;;;6.49;83.08;97953.34;2017410;80;20224;-74
2021/03/13 07:00:30;;;;;;;1.45;0.46;;;;;;;6.52;82.70;97948.16;2019824;80;20353;-75
2021/03/13 07:03:33;;;;;;;4.46;0.57;;;;;;;6.56;82.17;97946.38;2018050;80;20335;-75
2021/03/13 07:06:45;;;;;;;6.72;0.71;;;;;;;6.59;82.01;97936.03;2018231;80;20344;-79
2021/03/13 07:09:48;;;;;;;3.66;0.60;;;;;;;6.61;82.00;97954.91;2019662;80;20342;-76
2021/03/13 07:12:51;;;;;;;1.67;0.63;;;;;;;6.64;81.79;97936.81;2017922;80;20795;-76
2021/03/13 07:15:53;;;;;;;1.69;0.55;;;;;;;6.64;80.84;97935.13;2022075;80;20394;-78
2021/03/13 07:19:06;;;;;;;5.14;0.90;;;;;;;6.68;80.77;97923.03;2022817;80;20348;-77
2021/03/13 07:22:11;;;;;;;2.79;0.41;;;;;;;6.68;80.48;97929.91;2021930;80;21347;-77
2021/03/13 07:25:14;;;;;;;2.04;0.51;;;;;;;6.69;80.11;97916.16;2021399;79;20464;-76
2021/03/13 07:28:15;;;;;;;3.01;0.47;;;;;;;6.71;80.03;97925.56;2021334;80;21027;-77
2021/03/13 07:31:19;;;;;;;4.00;1.40;;;;;;;6.69;80.60;97917.00;2017772;80;20311;-77
2021/03/13 07:34:23;;;;;;;2.65;0.56;;;;;;;6.70;80.80;97934.19;2018660;80;20888;-80
2021/03/13 07:37:27;;;;;;;1.55;0.44;;;;;;;6.67;80.27;97926.47;2023557;80;20412;-77
2021/03/13 07:40:33;;;;;;;4.90;0.40;;;;;;;6.70;80.71;97926.44;2019105;80;20462;-77
2021/03/13 07:43:35;;;;;;;2.84;0.50;;;;;;;6.70;80.99;97934.19;2017388;80;20356;-76
2021/03/13 07:46:37;;;;;;;2.64;0.68;;;;;;;6.72;81.18;97921.25;2018364;80;20631;-80
2021/03/13 07:49:40;;;;;;;1.58;0.36;;;;;;;6.74;81.46;97942.72;2018149;80;20890;-76
2021/03/13 07:52:48;;;;;;;2.28;0.40;;;;;;;6.76;81.52;97930.66;2018509;80;20324;-76
2021/03/13 07:55:51;;;;;;;3.47;0.50;;;;;;;6.77;81.34;97907.44;2017775;80;20343;-76
2021/03/13 07:58:54;;;;;;;1.85;0.60;;;;;;;6.75;81.92;97898.00;2017227;80;20760;-75
2021/03/13 08:01:56;;;;;;;3.04;0.50;;;;;;;6.76;82.32;97905.72;2018418;80;20385;-74
2021/03/13 08:05:10;;;;;;;3.46;0.47;;;;;;;6.76;81.95;97889.38;2017823;80;20864;-76
2021/03/13 08:08:12;;;;;;;2.30;0.40;;;;;;;6.80;82.67;97889.31;2017526;80;20312;-76
2021/03/13 08:11:21;;;;;;;1.81;0.54;;;;;;;6.81;82.90;97877.28;2017701;80;20420;-74
2021/03/13 08:14:33;;;;;;;1.91;0.46;;;;;;;6.81;82.25;97875.53;2020832;80;20328;-79
2021/03/13 08:17:39;;;;;;;2.89;0.40;;;;;;;6.80;82.26;97889.31;2018372;80;20223;-74
2021/03/13 08:20:41;;;;;;;3.00;1.15;;;;;;;6.81;82.30;97878.13;2018082;80;20349;-74
2021/03/13 08:23:52;;;;;;;1.73;0.30;;;;;;;6.81;82.25;97872.13;2017172;80;20335;-75
2021/03/13 08:26:59;;;;;;;1.96;0.36;;;;;;;6.83;83.15;97862.66;2015373;80;20470;-75
2021/03/13 08:30:15;;;;;;;2.20;0.40;;;;;;;6.86;82.95;97867.75;2017773;80;20324;-73
2021/03/13 08:33:25;;;;;;;5.16;0.64;;;;;;;6.85;82.41;97829.94;2016552;80;20452;-73
2021/03/13 08:36:29;;;;;;;4.00;0.49;;;;;;;6.85;81.93;97842.84;2016852;80;20369;-73
2021/03/13 08:39:34;;;;;;;1.60;0.55;;;;;;;6.90;82.51;97841.91;2017563;80;20320;-73
2021/03/13 08:42:36;;;;;;;2.66;0.70;;;;;;;6.92;82.31;97841.88;2017185;80;20337;-72
2021/03/13 08:45:38;;;;;;;1.39;0.32;;;;;;;6.89;82.23;97842.78;2016672;80;20442;-76
2021/03/13 08:48:59;;;;;;;3.67;0.60;;;;;;;6.95;82.93;97818.59;2017607;80;20316;-74
2021/03/13 08:52:07;;;;;;;2.83;0.40;;;;;;;6.97;83.04;97830.59;2018974;80;20320;-72
2021/03/13 08:55:32;;;;;;;2.22;0.40;;;;;;;6.97;82.72;97835.75;2017662;80;20937;-73
2021/03/13 08:58:43;;;;;;;1.80;0.36;;;;;;;6.98;82.39;97831.44;2017643;80;21358;-71
2021/03/13 09:02:00;;;;;;;1.00;0.36;;;;;;;6.98;82.30;97815.97;2022093;80;20336;-71
2021/03/13 09:05:17;;;;;;;2.10;0.30;;;;;;;6.98;82.13;97834.88;2017856;80;20793;-72
2021/03/13 09:08:18;;;;;;;1.11;0.30;;;;;;;6.95;81.62;97826.34;2017508;80;20328;-69
2021/03/13 09:11:27;;;;;;;0.91;0.30;;;;;;;6.98;82.39;97839.19;2018628;80;20316;-68
2021/03/13 09:14:32;;;;;;;1.06;0.39;;;;;;;7.01;82.77;97825.41;2017455;80;20479;-67
2021/03/13 09:17:35;;;;;;;2.00;1.23;;;;;;;7.05;83.05;97835.66;2018024;80;20454;-69
2021/03/13 09:20:41;;;;;;;1.46;0.40;;;;;;;7.04;82.94;97830.53;2018514;80;20335;-69
2021/03/13 09:23:42;;;;;;;0.99;0.30;;;;;;;7.04;82.59;97830.53;2018189;80;20346;-72
2021/03/13 09:26:56;;;;;;;1.48;0.73;;;;;;;7.02;82.98;97816.78;2018099;80;20426;-73
2021/03/13 09:29:59;;;;;;;1.00;0.24;;;;;;;6.97;82.71;97825.44;2019385;80;20915;-72
2021/03/13 09:33:01;;;;;;;0.99;0.32;;;;;;;6.96;83.01;97831.47;2018162;80;20328;-72
2021/03/13 09:36:10;;;;;;;2.08;0.41;;;;;;;6.92;82.70;97821.22;2017875;80;21006;-72
2021/03/13 09:39:22;;;;;;;1.55;0.40;;;;;;;6.93;83.47;97828.09;2018199;80;20328;-71
2021/03/13 09:42:25;;;;;;;1.98;0.82;;;;;;;6.86;83.17;97829.06;2018270;80;20361;-72
2021/03/13 09:45:27;;;;;;;0.96;0.40;;;;;;;6.92;83.88;97824.66;2020931;79;20319;-71
2021/03/13 09:48:29;;;;;;;2.35;0.40;;;;;;;6.94;83.82;97822.06;2017985;80;20953;-71
2021/03/13 09:51:30;;;;;;;1.31;0.39;;;;;;;6.93;83.21;97820.34;2017972;80;20327;-72
2021/03/13 09:54:32;;;;;;;0.90;0.22;;;;;;;6.97;83.35;97817.69;2018289;80;20922;-73
2021/03/13 09:57:34;;;;;;;0.89;0.30;;;;;;;6.97;83.87;97825.44;2018019;80;20351;-72
2021/03/13 10:00:41;;;;;;;0.91;0.28;;;;;;;6.94;83.68;97827.22;2017936;80;20506;-72
2021/03/13 10:03:45;;;;;;;2.41;0.36;;;;;;;6.90;83.65;97879.75;2017920;80;20359;-73
2021/03/13 10:06:46;;;;;;;0.32;0.21;;;;;;;6.83;83.29;97867.81;2017629;80;20379;-73
2021/03/13 10:09:59;;;;;;;1.14;0.20;;;;;;;6.80;83.51;97948.66;2018442;80;20320;-73
2021/03/13 10:13:03;;;;;;;0.90;0.20;;;;;;;6.61;82.22;98017.66;2017987;80;20365;-72
2021/03/13 10:16:11;;;;;;;0.93;0.20;;;;;;;6.06;78.26;98005.31;2017676;80;20327;-71
2021/03/13 10:19:32;;;;;;;0.97;0.10;;;;;;;5.50;76.54;98021.16;2017532;80;20544;-74
2021/03/13 10:22:34;;;;;;;0.22;0.20;;;;;;;4.78;77.65;98023.22;2018578;80;20322;-74
2021/03/13 10:25:39;;;;;;;0.90;0.30;;;;;;;4.51;79.62;98049.88;2018183;80;20668;-74
2021/03/13 10:28:48;;;;;;;0.34;0.17;;;;;;;4.32;81.23;98035.38;2019688;80;20320;-73
2021/03/13 10:31:50;;;;;;;1.39;0.20;;;;;;;4.24;82.20;98058.47;2018675;80;20312;-73
2021/03/13 10:35:16;;;;;;;0.29;0.20;;;;;;;4.18;83.23;98054.22;2018039;80;20356;-74
2021/03/13 10:38:26;;;;;;;1.77;0.20;;;;;;;4.21;83.94;98050.78;2017716;80;20472;-74
2021/03/13 10:41:28;;;;;;;0.10;0.10;;;;;;;4.26;84.64;98043.91;2018273;80;20365;-74
2021/03/13 10:44:29;;;;;;;0.20;0.16;;;;;;;4.35;85.29;98043.91;2017108;80;20424;-74
2021/03/13 10:47:31;;;;;;;0.35;0.30;;;;;;;4.43;85.73;98041.31;2017562;80;20327;-74
2021/03/13 10:50:37;;;;;;;0.36;0.20;;;;;;;4.51;85.89;98049.88;2018042;80;20345;-74
2021/03/13 10:53:40;;;;;;;0.85;0.36;;;;;;;4.58;85.97;98041.28;2018727;80;20368;-74
2021/03/13 10:56:43;;;;;;;1.35;0.20;;;;;;;4.63;86.10;98036.13;2018436;80;20334;-74
2021/03/13 10:59:45;;;;;;;1.19;0.20;;;;;;;4.69;86.27;98013.84;2018810;80;20339;-74
2021/03/13 11:02:47;;;;;;;1.75;0.30;;;;;;;4.77;86.50;98003.53;2018716;80;20300;-73
2021/03/13 11:05:51;;;;;;;1.42;0.30;;;;;;;4.84;86.66;97993.19;2018022;80;20312;-73
2021/03/13 11:08:54;;;;;;;0.71;0.25;;;;;;;4.97;86.68;97970.84;2019355;80;20329;-74
2021/03/13 11:11:56;;;;;;;0.32;0.20;;;;;;;5.08;86.67;97960.53;2018189;80;20330;-75
2021/03/13 11:14:58;;;;;;;0.75;0.31;;;;;;;5.23;86.55;98014.47;2017948;80;20364;-75
2021/03/13 11:18:00;;;;;;;0.91;0.32;;;;;;;5.38;86.39;98005.78;2017782;80;20312;-74
2021/03/13 11:21:02;;;;;;;0.45;0.20;;;;;;;5.51;85.83;98014.28;2017906;80;20438;-75
2021/03/13 11:24:04;;;;;;;2.16;0.31;;;;;;;5.64;85.49;97990.19;2018165;80;20447;-74
2021/03/13 11:27:07;;;;;;;1.14;0.30;;;;;;;5.72;84.59;98009.00;2018709;80;20444;-76
2021/03/13 11:30:10;;;;;;;1.04;0.20;;;;;;;5.83;84.38;98003.78;2018175;80;21091;-75
2021/03/13 11:33:12;;;;;;;1.20;0.35;;;;;;;5.90;83.56;97997.72;2017867;80;20304;-74
2021/03/13 11:36:16;;;;;;;0.66;0.30;;;;;;;5.91;82.73;97992.56;2018671;80;20308;-75
2021/03/13 11:39:18;;;;;;;1.36;0.20;;;;;;;6.02;82.83;97993.31;2018613;80;20811;-75
2021/03/13 11:42:37;;;;;;;1.05;0.25;;;;;;;6.13;83.15;98007.84;2018629;80;20365;-75
2021/03/13 11:45:39;;;;;;;0.44;0.30;;;;;;;6.20;81.14;97996.59;2017902;80;20312;-75
2021/03/13 11:48:41;;;;;;;1.10;0.20;;;;;;;6.34;81.64;98005.91;2021620;80;20337;-76
2021/03/13 11:51:43;;;;;;;1.15;0.31;;;;;;;6.59;82.49;98005.66;2018336;80;20328;-74
2021/03/13 11:54:46;;;;;;;1.33;0.30;;;;;;;6.73;80.33;97995.19;2017006;80;20358;-74
2021/03/13 11:57:48;;;;;;;0.54;0.20;;;;;;;6.94;81.08;98011.25;2017554;80;20820;-74
2021/03/13 12:00:51;;;;;;;0.57;0.20;;;;;;;7.11;81.18;97997.28;2017911;80;20828;-74
2021/03/13 12:03:53;;;;;;;1.77;0.30;;;;;;;7.13;79.45;97998.13;2017268;80;20319;-74
2021/03/13 12:06:55;;;;;;;1.08;0.31;;;;;;;7.12;79.59;97993.84;2017988;80;20356;-74
2021/03/13 12:09:56;;;;;;;3.39;0.46;;;;;;;7.31;80.02;97994.44;2017463;80;20316;-74
2021/03/13 12:12:58;;;;;;;1.38;0.46;;;;;;;7.54;77.69;97987.22;2018642;80;20312;-75
2021/03/13 12:16:00;;;;;;;3.70;0.50;;;;;;;7.78;76.30;97978.25;2018067;80;20363;-75
2021/03/13 12:19:03;;;;;;;1.19;0.45;;;;;;;8.09;75.63;97979.44;2018188;80;20729;-75
2021/03/13 12:22:06;;;;;;;2.39;0.70;;;;;;;8.56;75.19;97969.13;2017673;80;20332;-77
2021/03/13 12:25:08;;;;;;;2.08;0.50;;;;;;;9.06;74.30;97968.13;2017411;80;20315;-78
2021/03/13 12:28:10;;;;;;;3.49;0.52;;;;;;;9.41;73.30;97967.34;2017948;80;20424;-77
2021/03/13 12:31:11;;;;;;;5.31;0.70;;;;;;;9.48;71.80;97961.13;2017960;80;20374;-77
2021/03/13 12:34:13;;;;;;;3.96;0.60;;;;;;;9.35;72.13;97947.63;2017724;80;21499;-77
2021/03/13 12:37:16;;;;;;;3.30;0.59;;;;;;;9.02;70.12;97954.41;2017755;80;20356;-77
2021/03/13 12:40:18;;;;;;;1.31;0.47;;;;;;;8.81;70.58;97938.47;2017919;80;20228;-77
2021/03/13 12:43:20;;;;;;;2.41;0.81;;;;;;;8.75;72.57;97931.66;2016257;80;21281;-77
2021/03/13 12:46:22;;;;;;;4.88;0.77;;;;;;;8.65;72.95;97930.16;2017010;80;20167;-75
2021/03/13 12:49:23;;;;;;;4.47;0.77;;;;;;;8.41;72.46;97934.06;2017343;80;20518;-75
2021/03/13 12:52:25;;;;;;;2.35;0.57;;;;;;;8.12;72.20;97919.09;2016649;80;20335;-75
2021/03/13 12:55:27;;;;;;;5.68;1.21;;;;;;;7.92;73.02;97916.00;2016752;80;20383;-75
2021/03/13 12:58:29;;;;;;;3.01;0.85;;;;;;;7.63;73.49;97929.41;2017360;80;20328;-76
2021/03/13 13:01:31;;;;;;;2.41;0.50;;;;;;;7.48;74.90;97946.00;2018575;80;20308;-79
2021/03/13 13:04:35;;;;;;;2.55;0.40;;;;;;;7.28;77.11;97979.84;2017469;80;20315;-77
2021/03/13 13:07:40;;;;;;;2.24;0.40;;;;;;;6.94;77.08;98011.25;2018357;80;20445;-77
2021/03/13 13:10:43;;;;;;;0.81;0.30;;;;;;;6.62;76.16;98005.63;2017403;80;20320;-77
2021/03/13 13:13:44;;;;;;;0.66;0.40;;;;;;;6.35;76.32;98006.78;2017760;80;20308;-74
2021/03/13 13:16:46;;;;;;;0.94;0.20;;;;;;;6.14;76.62;97994.09;2018342;80;20347;-76
2021/03/13 13:19:48;;;;;;;0.32;0.20;;;;;;;5.95;77.89;97990.84;2018254;80;20430;-78
2021/03/13 13:22:50;;;;;;;0.71;0.20;;;;;;;5.99;79.01;97993.34;2021084;80;20324;-78
2021/03/13 13:25:55;;;;;;;2.46;0.11;;;;;;;6.17;80.11;97989.75;2019747;80;21167;-79
2021/03/13 13:28:56;;;;;;;0.22;0.20;;;;;;;6.42;80.26;97980.03;2020223;80;20320;-78
2021/03/13 13:31:58;;;;;;;0.28;0.20;;;;;;;6.89;81.08;97971.78;2018575;80;20377;-79
2021/03/13 13:35:02;;;;;;;0.65;0.20;;;;;;;7.37;79.68;97971.13;2026645;80;20344;-81
2021/03/13 13:38:04;;;;;;;1.11;0.20;;;;;;;7.63;78.32;97962.97;2029249;80;20300;-78
2021/03/13 13:41:05;;;;;;;0.65;0.20;;;;;;;7.99;78.44;97969.28;2034014;80;20659;-82
2021/03/13 13:44:07;;;;;;;0.56;0.20;;;;;;;8.38;78.50;97962.56;2023549;80;20956;-79
2021/03/13 13:47:08;;;;;;;0.74;0.30;;;;;;;8.79;77.52;97962.63;2029084;80;20328;-81
2021/03/13 13:50:14;;;;;;;1.16;0.44;;;;;;;9.22;76.78;97966.91;2031404;80;20324;-81
2021/03/13 13:53:15;;;;;;;1.50;0.30;;;;;;;9.41;75.26;97962.16;2029257;80;20911;-81
2021/03/13 13:56:17;;;;;;;2.05;0.31;;;;;;;9.24;72.42;97972.03;2030275;80;20338;-81
2021/03/13 13:59:19;;;;;;;1.88;0.50;;;;;;;9.07;74.04;97955.13;2028820;80;20307;-81
2021/03/13 14:02:21;;;;;;;2.36;0.57;;;;;;;8.98;74.13;97950.16;2030892;80;20313;-82
2021/03/13 14:05:24;;;;;;;2.67;0.45;;;;;;;8.92;74.20;97950.28;2033454;80;20324;-83
2021/03/13 14:08:26;;;;;;;3.24;0.79;;;;;;;8.75;73.95;97954.94;2034999;80;20461;-81
2021/03/13 14:11:28;;;;;;;2.33;0.40;;;;;;;8.65;74.36;97951.72;2030644;80;20197;-85
2021/03/13 14:14:29;;;;;;;2.33;0.49;;;;;;;8.72;72.66;97947.25;2029546;80;20174;-81
2021/03/13 14:17:31;;;;;;;2.58;0.55;;;;;;;9.08;72.05;97946.47;2029413;80;20352;-82
2021/03/13 14:20:33;;;;;;;1.96;0.44;;;;;;;9.50;71.20;97951.56;2023820;80;20282;-83
2021/03/13 14:23:35;;;;;;;1.89;0.51;;;;;;;9.79;69.27;97921.53;2024928;80;20281;-81
2021/03/13 14:26:38;;;;;;;1.31;0.50;;;;;;;9.90;66.91;97948.06;2024757;80;20353;-80
2021/03/13 14:29:40;;;;;;;2.39;0.60;;;;;;;10.07;67.97;97940.69;2024001;80;20201;-80
2021/03/13 14:32:43;;;;;;;1.95;0.44;;;;;;;10.20;64.03;97946.41;2019957;80;21027;-79
2021/03/13 14:35:45;;;;;;;4.79;1.11;;;;;;;10.29;65.53;97938.41;2018561;80;20343;-79
2021/03/13 14:38:46;;;;;;;1.90;0.63;;;;;;;10.42;64.74;97928.56;2019725;80;20226;-78